Time;durP1;ratioP1;P1;durP2;ratioP2;P2;SDS_P1;SDS_P2;PMS_P1;PMS_P2;Temp;Humidity;BMP_temperature;BMP_pressure;BME280_temperature;BME280_humidity;BME280_pressure;Samples;Min_cycle;Max_cycle;Signal;HPM_P1;HPM_P2
2022/03/20 00:02:23;;;;;;;8.00;3.72;;;;;;;4.82;58.75;103127.34;5232782;28;20536;-74
2022/03/20 00:04:55;;;;;;;8.33;4.00;;;;;;;4.83;58.99;103130.81;5231202;28;20021;-74
2022/03/20 00:07:26;;;;;;;8.23;3.83;;;;;;;4.83;58.96;103123.97;5233068;28;20040;-73
2022/03/20 00:10:01;;;;;;;8.60;4.10;;;;;;;4.81;59.11;103115.22;5232371;28;20055;-73
2022/03/20 00:12:36;;;;;;;8.70;3.85;;;;;;;4.69;59.89;103110.38;5232692;28;20029;-74
2022/03/20 00:15:09;;;;;;;7.53;4.75;;;;;;;4.80;59.21;103116.06;5233535;28;20352;-78
2022/03/20 00:17:43;;;;;;;9.88;4.72;;;;;;;4.69;59.96;103120.69;5233058;28;20445;-75
2022/03/20 00:20:15;;;;;;;28.70;16.95;;;;;;;4.71;60.12;103108.72;5232582;28;20022;-72
2022/03/20 00:22:46;;;;;;;9.10;5.03;;;;;;;4.57;60.08;103102.00;5232079;28;20030;-72
2022/03/20 00:25:18;;;;;;;11.13;4.83;;;;;;;4.47;60.50;103097.19;5231133;28;20439;-71
2022/03/20 00:27:49;;;;;;;9.87;5.50;;;;;;;4.45;60.86;103093.66;5232672;28;20025;-74
2022/03/20 00:30:24;;;;;;;10.67;5.17;;;;;;;4.45;61.05;103091.09;5232809;28;20038;-73
2022/03/20 00:32:55;;;;;;;10.43;6.10;;;;;;;4.34;61.63;103082.78;5233796;28;20052;-73
2022/03/20 00:35:28;;;;;;;8.53;5.23;;;;;;;4.24;61.60;103076.28;5234563;28;20052;-74
2022/03/20 00:38:00;;;;;;;;;;;;;;;4.29;61.19;103079.97;5230112;28;20033;-74
2022/03/20 00:40:34;;;;;;;12.93;5.95;;;;;;;4.17;62.22;103064.78;5250204;28;20020;-79
2022/03/20 00:52:51;;;;;;;13.05;5.50;;;;;;;3.89;64.18;103047.00;5095023;29;20082;-83
2022/03/20 00:55:33;;;;;;;12.52;6.47;;;;;;;3.72;64.16;103050.38;5093207;29;20048;-78
2022/03/20 00:58:33;;;;;;;11.90;5.95;;;;;;;3.66;64.62;103045.81;5093649;29;20055;-89
2022/03/20 01:01:28;;;;;;;;;;;;;;;;;;;;;
2022/03/20 01:14:43;;;;;;;11.73;6.45;;;;;;;3.36;66.40;103030.50;4908140;30;20160;-75
2022/03/20 01:18:02;;;;;;;;;;;;;;;;;;;;;
2022/03/20 01:21:20;;;;;;;12.68;7.68;;;;;;;3.15;67.22;103014.78;4908505;30;20075;-76
2022/03/20 01:23:54;;;;;;;12.10;7.50;;;;;;;3.29;67.20;103018.97;4897080;30;20162;-77
2022/03/20 01:26:25;;;;;;;12.02;7.30;;;;;;;3.08;67.41;103013.56;4960459;30;20040;-76
2022/03/20 01:28:57;;;;;;;15.23;7.27;;;;;;;3.05;67.72;103004.78;5000763;29;20050;-79
2022/03/20 01:31:28;;;;;;;13.77;7.00;;;;;;;3.07;67.85;103000.59;5042109;29;20069;-80
2022/03/20 01:34:00;;;;;;;14.10;7.80;;;;;;;3.08;67.93;102992.94;5050938;29;20046;-73
2022/03/20 01:36:32;;;;;;;16.70;7.77;;;;;;;3.08;67.88;102994.66;5053639;29;20036;-75
2022/03/20 01:39:03;;;;;;;13.43;8.00;;;;;;;3.06;67.84;102988.53;5054393;29;20045;-74
2022/03/20 01:41:35;;;;;;;16.40;9.40;;;;;;;2.96;68.17;102981.09;5048272;29;20042;-74
2022/03/20 01:44:06;;;;;;;11.77;7.60;;;;;;;3.00;68.14;102973.63;5082710;29;20040;-77
2022/03/20 01:46:37;;;;;;;15.83;9.43;;;;;;;2.86;68.51;102967.72;5158403;28;20052;-83
2022/03/20 01:49:09;;;;;;;12.20;8.70;;;;;;;2.93;67.91;102968.94;5261343;28;20033;-79
2022/03/20 01:54:33;;;;;;;15.18;9.65;;;;;;;2.89;68.49;102956.69;5262946;28;20033;-81
2022/03/20 01:57:07;;;;;;;16.73;11.00;;;;;;;2.88;68.45;102957.50;5260305;28;20135;-83
2022/03/20 01:59:39;;;;;;;20.83;11.07;;;;;;;2.81;68.43;102955.41;5260133;28;20021;-74
2022/03/20 02:02:11;;;;;;;20.25;10.50;;;;;;;2.85;67.96;102957.31;5241880;28;20413;-78
2022/03/20 02:04:42;;;;;;;17.00;11.70;;;;;;;2.84;67.75;102953.88;5260102;28;20507;-74
2022/03/20 02:07:15;;;;;;;19.37;12.63;;;;;;;2.74;67.96;102949.91;5259648;28;20025;-79
2022/03/20 02:09:47;;;;;;;18.52;12.75;;;;;;;2.83;67.55;102944.34;5259616;28;20442;-79
2022/03/20 02:12:18;;;;;;;17.57;13.17;;;;;;;2.82;67.34;102939.13;5259498;28;20029;-76
2022/03/20 02:14:50;;;;;;;19.57;13.30;;;;;;;2.85;66.96;102932.47;5259120;28;20036;-81
2022/03/20 02:17:21;;;;;;;20.13;13.63;;;;;;;2.83;67.06;102933.19;5259062;28;20551;-74
2022/03/20 02:19:55;;;;;;;22.07;15.07;;;;;;;2.80;66.72;102926.19;5259077;28;20108;-81
2022/03/20 02:22:26;;;;;;;21.15;14.75;;;;;;;2.79;67.11;102918.38;5259158;28;20029;-73
2022/03/20 02:25:05;;;;;;;19.90;14.40;;;;;;;2.80;66.97;102928.78;5259579;28;20094;-75
2022/03/20 02:27:39;;;;;;;19.88;14.80;;;;;;;2.68;67.43;102917.78;5259195;28;20029;-82
2022/03/20 02:34:55;;;;;;;22.50;15.82;;;;;;;2.61;66.75;102895.06;5259452;28;20071;-83
2022/03/20 02:38:11;;;;;;;22.08;14.65;;;;;;;2.67;66.79;102908.28;5261817;28;20041;-84
2022/03/20 02:50:36;;;;;;;24.58;16.85;;;;;;;2.64;65.93;102891.00;5075158;29;20472;-75
2022/03/20 02:53:13;;;;;;;23.88;16.65;;;;;;;2.60;67.05;102889.06;5075036;29;20049;-79
2022/03/20 02:55:45;;;;;;;23.70;17.73;;;;;;;2.66;66.59;102894.53;5075625;29;20124;-74
2022/03/20 02:58:18;;;;;;;25.75;16.38;;;;;;;2.61;66.63;102890.84;5075068;29;20532;-74
2022/03/20 03:00:49;;;;;;;;;;;;;;;2.60;65.79;102886.47;5075406;29;20041;-82
2022/03/20 03:03:20;;;;;;;22.70;17.08;;;;;;;2.62;66.18;102886.56;5075294;29;19931;-80
2022/03/20 03:05:56;;;;;;;29.47;16.97;;;;;;;2.67;66.04;102875.72;5075290;29;20108;-81
2022/03/20 03:11:18;;;;;;;25.55;17.38;;;;;;;2.63;66.16;102872.91;5075017;29;20501;-73
2022/03/20 03:13:50;;;;;;;23.23;17.08;;;;;;;2.57;65.78;102865.72;5074833;29;20417;-82
2022/03/20 03:16:21;;;;;;;23.53;17.20;;;;;;;2.47;66.65;102866.91;5074441;29;20033;-77
2022/03/20 03:18:52;;;;;;;27.97;17.83;;;;;;;2.47;66.38;102868.59;5074920;29;20058;-74
2022/03/20 03:21:23;;;;;;;23.87;18.57;;;;;;;2.41;66.90;102861.41;5074983;29;20029;-77
2022/03/20 03:23:55;;;;;;;23.53;17.97;;;;;;;2.42;67.31;102857.19;5074841;29;20782;-82
2022/03/20 03:26:27;;;;;;;27.63;18.83;;;;;;;2.36;66.49;102853.44;5183352;28;20041;-80
2022/03/20 03:28:59;;;;;;;28.87;19.00;;;;;;;2.37;66.72;102849.22;5237345;28;20140;-74
2022/03/20 03:31:30;;;;;;;23.35;19.25;;;;;;;2.33;66.76;102842.97;5237923;28;20504;-74
2022/03/20 03:36:52;;;;;;;26.30;19.40;;;;;;;2.26;67.03;102840.03;5237667;28;20042;-79
2022/03/20 03:39:23;;;;;;;26.47;20.17;;;;;;;2.19;67.42;102837.09;5237271;28;20030;-81
2022/03/20 03:41:54;;;;;;;31.00;20.70;;;;;;;2.22;67.29;102831.22;5218905;28;20065;-82
2022/03/20 03:44:26;;;;;;;27.53;19.40;;;;;;;2.18;67.43;102825.03;5237689;28;20041;-76
2022/03/20 03:46:57;;;;;;;28.90;20.90;;;;;;;2.13;67.77;102821.31;5237151;28;20044;-78
2022/03/20 03:49:29;;;;;;;25.97;19.00;;;;;;;2.07;67.79;102805.56;5237160;28;20037;-83
2022/03/20 03:52:02;;;;;;;32.38;20.67;;;;;;;2.06;67.99;102815.75;5236669;28;21336;-74
2022/03/20 03:54:33;;;;;;;27.02;19.77;;;;;;;2.03;68.02;102808.78;5236589;28;20113;-81
2022/03/20 03:57:05;;;;;;;30.33;21.90;;;;;;;1.96;68.08;102799.81;5239958;28;20524;-84
2022/03/20 03:59:36;;;;;;;30.97;20.77;;;;;;;1.91;68.12;102801.25;5238158;28;20061;-81
2022/03/20 04:02:08;;;;;;;28.97;21.23;;;;;;;1.87;68.61;102804.47;5236529;28;20025;-83
2022/03/20 04:04:41;;;;;;;28.50;20.93;;;;;;;1.88;68.75;102801.06;5218850;28;20109;-80
2022/03/20 04:07:12;;;;;;;29.25;21.10;;;;;;;1.81;68.83;102802.44;5236732;28;20031;-73
2022/03/20 04:09:48;;;;;;;30.27;21.93;;;;;;;1.77;69.19;102787.66;5237315;28;20839;-76
2022/03/20 04:12:19;;;;;;;30.75;21.70;;;;;;;1.67;69.88;102784.47;5237043;28;20441;-79
2022/03/20 04:14:50;;;;;;;29.37;21.70;;;;;;;1.64;69.83;102777.47;5236925;28;20080;-79
2022/03/20 04:17:22;;;;;;;31.50;22.87;;;;;;;1.58;70.28;102777.16;5237068;28;20025;-77
2022/03/20 04:19:53;;;;;;;27.43;19.90;;;;;;;1.45;70.72;102773.00;5237548;28;20133;-73
2022/03/20 04:22:25;;;;;;;27.87;20.63;;;;;;;1.45;71.08;102771.31;5237687;28;20033;-80
2022/03/20 04:24:58;;;;;;;31.67;21.88;;;;;;;1.43;71.06;102770.34;5237349;28;20071;-83
2022/03/20 04:27:30;;;;;;;26.52;20.05;;;;;;;1.44;71.18;102761.81;5238990;28;20044;-82
2022/03/20 04:30:01;;;;;;;30.27;20.93;;;;;;;1.42;71.62;102753.13;5241094;28;20025;-74
2022/03/20 04:32:33;;;;;;;29.23;21.20;;;;;;;1.32;71.64;102749.94;5240721;28;20033;-82
2022/03/20 04:35:07;;;;;;;34.83;21.80;;;;;;;1.38;71.10;102738.31;5248954;28;20051;-74
2022/03/20 04:37:38;;;;;;;34.28;21.73;;;;;;;1.34;71.44;102740.66;5252945;28;20026;-72
2022/03/20 04:40:11;;;;;;;33.23;22.07;;;;;;;1.31;71.24;102740.50;5239831;28;20079;-78
2022/03/20 04:42:42;;;;;;;32.30;22.17;;;;;;;1.27;71.58;102747.13;5247828;28;20077;-75
2022/03/20 04:45:13;;;;;;;28.40;22.33;;;;;;;1.19;71.95;102743.22;5245747;28;20112;-83
2022/03/20 04:59:05;;;;;;;30.80;23.33;;;;;;;1.00;72.68;102731.00;5241425;28;20045;-83
2022/03/20 05:01:37;;;;;;;30.67;21.70;;;;;;;0.90;73.10;102717.66;5240842;28;20021;-78
2022/03/20 05:04:09;;;;;;;33.63;23.40;;;;;;;0.88;72.93;102715.78;5241056;28;20107;-81
2022/03/20 05:06:42;;;;;;;31.70;24.27;;;;;;;0.84;73.14;102716.41;5240506;28;20033;-82
2022/03/20 05:14:58;;;;;;;30.27;22.10;;;;;;;0.70;73.67;102710.47;5240773;28;20106;-81
2022/03/20 05:17:30;;;;;;;36.13;23.58;;;;;;;0.65;74.23;102702.50;5240436;28;20059;-76
2022/03/20 05:20:01;;;;;;;37.03;25.07;;;;;;;0.62;74.36;102696.31;5240033;28;20025;-81
2022/03/20 05:22:37;;;;;;;31.77;24.20;;;;;;;0.64;74.60;102705.84;5240378;28;20120;-75
2022/03/20 05:25:09;;;;;;;31.83;23.50;;;;;;;0.61;74.19;102697.09;5239830;28;20120;-82
2022/03/20 05:27:41;;;;;;;35.67;23.75;;;;;;;0.58;74.34;102699.47;5240374;28;20029;-83
2022/03/20 05:30:12;;;;;;;31.63;23.33;;;;;;;0.52;74.43;102693.19;5239750;28;20034;-82
2022/03/20 05:32:44;;;;;;;30.47;24.43;;;;;;;0.52;74.45;102694.88;5239533;28;20021;-79
2022/03/20 05:35:16;;;;;;;29.60;22.20;;;;;;;0.51;74.70;102680.28;5239663;28;20079;-78
2022/03/20 05:37:48;;;;;;;32.85;23.50;;;;;;;0.52;74.71;102693.19;5239750;28;20026;-74
2022/03/20 05:40:19;;;;;;;31.00;22.77;;;;;;;0.46;74.75;102691.94;5239800;28;20030;-75
2022/03/20 05:42:51;;;;;;;30.63;22.93;;;;;;;0.43;75.05;102681.50;5239136;28;20054;-74
2022/03/20 05:45:23;;;;;;;31.83;22.73;;;;;;;0.45;74.72;102677.34;5239312;28;20022;-74
2022/03/20 05:47:56;;;;;;;37.83;25.63;;;;;;;0.41;74.91;102671.16;5239852;28;20167;-83
2022/03/20 05:50:27;;;;;;;32.20;22.67;;;;;;;0.43;74.57;102668.66;5238106;28;20210;-81
2022/03/20 05:52:59;;;;;;;30.73;23.37;;;;;;;0.45;74.42;102662.84;5238234;28;20061;-76
2022/03/20 05:58:20;;;;;;;26.50;20.67;;;;;;;0.52;74.54;102669.22;5239084;28;20683;-79
2022/03/20 06:00:51;;;;;;;34.10;23.47;;;;;;;0.51;74.28;102668.31;5238727;28;20025;-75
2022/03/20 06:03:24;;;;;;;31.30;23.47;;;;;;;0.51;73.74;102670.88;5238793;28;20025;-73
2022/03/20 06:05:56;;;;;;;31.80;22.52;;;;;;;0.60;73.47;102667.97;5238722;28;20034;-81
2022/03/20 06:08:27;;;;;;;32.77;23.57;;;;;;;0.61;73.31;102664.63;5238348;28;20516;-81
2022/03/20 06:11:02;;;;;;;33.30;22.77;;;;;;;0.67;72.48;102664.09;5238672;28;20033;-83
2022/03/20 06:13:37;;;;;;;34.47;22.63;;;;;;;0.70;72.00;102657.44;5221670;28;20489;-77
2022/03/20 06:16:08;;;;;;;36.15;21.88;;;;;;;0.76;71.90;102656.00;5220986;28;20034;-75
2022/03/20 06:18:42;;;;;;;28.73;21.63;;;;;;;0.88;70.69;102652.47;5239002;28;20029;-81
2022/03/20 06:21:14;;;;;;;27.63;20.85;;;;;;;0.96;70.28;102659.75;5238409;28;20489;-73
2022/03/20 06:23:45;;;;;;;29.60;21.07;;;;;;;1.04;69.76;102653.34;5237865;28;20112;-74
2022/03/20 06:26:19;;;;;;;27.80;19.30;;;;;;;1.13;68.29;102652.97;5237867;28;20507;-74
2022/03/20 06:28:54;;;;;;;28.30;20.27;;;;;;;1.23;68.58;102663.84;5219870;28;20548;-85
2022/03/20 06:31:25;;;;;;;25.88;19.80;;;;;;;1.28;68.16;102659.84;5220315;28;20389;-82
2022/03/20 06:33:57;;;;;;;28.87;20.23;;;;;;;1.39;67.09;102662.16;5238045;28;20057;-73
2022/03/20 06:36:29;;;;;;;27.95;18.73;;;;;;;1.50;66.69;102653.34;5238075;28;20099;-76
2022/03/20 06:39:00;;;;;;;27.07;20.70;;;;;;;1.68;65.71;102656.00;5220072;28;20025;-75
2022/03/20 06:41:31;;;;;;;27.77;20.43;;;;;;;1.90;65.03;102662.28;5237609;28;20419;-79
2022/03/20 06:44:05;;;;;;;22.33;17.47;;;;;;;2.05;64.30;102642.53;5237848;28;20025;-78
2022/03/20 06:46:39;;;;;;;29.20;18.92;;;;;;;2.29;62.61;102649.75;5237739;28;20060;-77
2022/03/20 06:49:10;;;;;;;26.13;18.85;;;;;;;2.44;61.74;102640.22;5219477;28;20170;-78
2022/03/20 06:51:42;;;;;;;25.87;17.80;;;;;;;2.55;62.08;102639.06;5237696;28;20927;-75
2022/03/20 06:54:13;;;;;;;24.83;18.43;;;;;;;2.67;61.22;102636.25;5234259;28;20022;-75
2022/03/20 06:56:45;;;;;;;31.03;17.80;;;;;;;2.85;60.32;102632.75;5233997;28;20108;-75
2022/03/20 06:59:18;;;;;;;24.83;17.47;;;;;;;2.98;60.13;102634.25;5236578;28;20064;-75
2022/03/20 07:01:49;;;;;;;23.17;17.55;;;;;;;3.03;59.98;102614.75;5234829;28;20440;-76
2022/03/20 07:04:21;;;;;;;24.43;17.87;;;;;;;3.13;59.64;102621.22;5236186;28;20043;-78
2022/03/20 07:06:53;;;;;;;22.02;17.10;;;;;;;3.17;59.13;102620.56;5236295;28;20076;-75
2022/03/20 07:09:24;;;;;;;28.27;18.40;;;;;;;3.23;58.71;102620.84;5235247;28;20465;-75
2022/03/20 07:11:55;;;;;;;34.37;18.37;;;;;;;3.26;58.70;102627.00;5218169;28;20037;-75
2022/03/20 07:14:27;;;;;;;31.97;18.60;;;;;;;3.32;57.93;102612.66;5235878;28;20488;-74
2022/03/20 07:16:59;;;;;;;26.13;16.40;;;;;;;3.36;57.89;102614.56;5235248;28;20045;-73
2022/03/20 07:19:31;;;;;;;23.80;17.60;;;;;;;3.41;57.80;102597.59;5235643;28;20029;-75
2022/03/20 07:22:05;;;;;;;31.38;18.27;;;;;;;3.48;57.49;102594.50;5235680;28;20030;-74
2022/03/20 07:24:40;;;;;;;21.55;16.75;;;;;;;3.55;56.26;102588.81;5235110;28;20554;-75
2022/03/20 07:30:03;;;;;;;24.77;17.65;;;;;;;3.65;55.17;102583.25;5237667;28;20460;-73
2022/03/20 07:32:34;;;;;;;27.48;18.58;;;;;;;3.75;55.54;102581.06;5241836;28;20033;-75
2022/03/20 07:35:06;;;;;;;27.53;17.30;;;;;;;3.83;54.17;102583.19;5236573;28;20064;-75
2022/03/20 07:37:39;;;;;;;28.77;20.52;;;;;;;3.86;54.96;102582.44;5237880;28;20029;-74
2022/03/20 07:40:10;;;;;;;25.60;16.90;;;;;;;3.83;53.00;102577.13;5238309;28;20088;-75
2022/03/20 07:42:42;;;;;;;25.20;16.90;;;;;;;3.83;53.14;102590.03;5222808;28;20054;-77
2022/03/20 07:45:13;;;;;;;24.80;16.10;;;;;;;3.77;52.79;102594.94;5217498;28;20026;-75
2022/03/20 07:47:44;;;;;;;27.10;17.37;;;;;;;3.76;53.37;102588.00;5215914;28;20021;-76
2022/03/20 07:50:16;;;;;;;28.10;20.77;;;;;;;3.75;53.41;102587.13;5214472;28;20040;-74
2022/03/20 07:52:48;;;;;;;27.43;17.13;;;;;;;3.78;53.43;102587.28;5215471;28;20049;-74
2022/03/20 07:55:20;;;;;;;30.17;17.10;;;;;;;3.83;52.86;102580.59;5214916;28;20060;-77
2022/03/20 07:57:51;;;;;;;23.83;16.53;;;;;;;3.87;52.92;102594.53;5213974;28;20468;-78
2022/03/20 08:00:23;;;;;;;22.40;16.80;;;;;;;3.86;52.05;102597.91;5215134;28;20040;-74
2022/03/20 08:02:55;;;;;;;26.27;18.40;;;;;;;3.81;52.54;102584.81;5196805;28;20068;-73
2022/03/20 08:05:27;;;;;;;29.27;21.63;;;;;;;3.88;52.39;102579.91;5213910;28;20288;-75
2022/03/20 08:08:02;;;;;;;23.63;17.93;;;;;;;3.83;52.85;102578.03;5214564;28;20269;-75
2022/03/20 08:10:34;;;;;;;29.05;18.65;;;;;;;3.81;52.17;102577.06;5214649;28;20025;-74
2022/03/20 08:13:05;;;;;;;26.00;17.33;;;;;;;3.82;51.58;102572.81;5195289;28;20042;-75
2022/03/20 08:15:37;;;;;;;25.33;17.33;;;;;;;3.83;51.88;102574.53;5214403;28;20151;-74
2022/03/20 08:18:08;;;;;;;25.70;15.57;;;;;;;3.86;51.85;102581.56;5214460;28;20057;-76
2022/03/20 08:20:41;;;;;;;28.37;17.63;;;;;;;3.89;53.04;102581.69;5215160;28;20308;-74
2022/03/20 08:23:14;;;;;;;23.98;16.80;;;;;;;3.93;52.04;102578.41;5214407;28;20089;-75
2022/03/20 08:25:45;;;;;;;22.23;16.17;;;;;;;3.96;51.66;102568.22;5213867;28;20137;-78
2022/03/20 08:28:17;;;;;;;24.00;17.07;;;;;;;4.03;51.88;102570.25;5214529;28;20053;-76
2022/03/20 08:30:49;;;;;;;27.30;16.73;;;;;;;4.09;51.26;102569.63;5214835;28;20093;-77
2022/03/20 08:33:20;;;;;;;23.97;17.70;;;;;;;4.17;51.59;102560.50;5214440;28;20092;-78
2022/03/20 08:35:52;;;;;;;24.93;18.00;;;;;;;4.25;50.98;102556.56;5214723;28;20169;-77
2022/03/20 08:38:23;;;;;;;22.23;17.17;;;;;;;4.27;50.96;102557.50;5214611;28;20603;-76
2022/03/20 08:40:55;;;;;;;23.17;16.77;;;;;;;4.29;51.62;102552.41;5214745;28;20022;-75
2022/03/20 08:43:27;;;;;;;22.30;15.87;;;;;;;4.25;51.34;102554.00;5232692;28;20037;-78
2022/03/20 08:45:58;;;;;;;23.60;16.70;;;;;;;4.22;51.93;102559.03;5235210;28;20467;-76
2022/03/20 08:48:29;;;;;;;25.57;15.83;;;;;;;4.19;51.88;102558.91;5235099;28;20061;-76
2022/03/20 08:51:01;;;;;;;21.80;16.60;;;;;;;4.26;54.25;102558.31;5234943;28;20029;-76
2022/03/20 08:53:33;;;;;;;24.87;16.43;;;;;;;4.26;51.91;102558.31;5234591;28;20055;-76
2022/03/20 08:56:05;;;;;;;28.23;19.48;;;;;;;4.25;51.39;102561.75;5234261;28;20056;-77
2022/03/20 08:58:37;;;;;;;24.65;16.65;;;;;;;4.31;50.94;102564.56;5214987;28;20032;-77
2022/03/20 09:01:08;;;;;;;22.30;16.60;;;;;;;4.32;50.78;102555.13;5234509;28;20034;-75
2022/03/20 09:03:40;;;;;;;25.90;17.77;;;;;;;4.33;51.80;102559.44;5234967;28;20025;-76
2022/03/20 09:06:11;;;;;;;27.43;18.13;;;;;;;4.34;51.57;102559.53;5234946;28;20033;-75
2022/03/20 09:08:43;;;;;;;30.73;17.27;;;;;;;4.38;51.86;102551.09;5235068;28;20022;-76
2022/03/20 09:11:15;;;;;;;28.80;18.58;;;;;;;4.47;52.33;102545.41;5217270;28;20283;-77
2022/03/20 09:13:47;;;;;;;27.63;18.45;;;;;;;4.69;50.74;102544.56;5234407;28;20053;-76
2022/03/20 09:19:08;;;;;;;25.15;17.80;;;;;;;6.24;51.23;102532.09;5235563;28;20503;-76
2022/03/20 09:21:40;;;;;;;22.10;16.50;;;;;;;7.07;45.94;102524.34;5234640;28;20112;-77
2022/03/20 09:24:11;;;;;;;26.90;17.67;;;;;;;7.71;44.95;102522.69;5235367;28;20063;-76
2022/03/20 09:26:43;;;;;;;26.57;16.03;;;;;;;8.26;41.17;102518.03;5238059;28;20025;-76
2022/03/20 09:29:16;;;;;;;24.57;16.83;;;;;;;8.85;39.99;102515.09;5237943;28;20044;-75
2022/03/20 09:31:50;;;;;;;26.90;19.63;;;;;;;9.27;39.04;102509.06;5237685;28;20056;-76
2022/03/20 09:34:21;;;;;;;24.70;17.73;;;;;;;9.17;39.38;102509.69;5238531;28;20469;-76
2022/03/20 09:36:53;;;;;;;30.30;19.23;;;;;;;9.09;39.89;102504.34;5238917;28;20075;-78
2022/03/20 09:39:26;;;;;;;22.93;17.80;;;;;;;8.72;39.66;102505.25;5238326;28;20025;-77
2022/03/20 09:41:58;;;;;;;24.60;19.23;;;;;;;8.46;41.17;102487.34;5237786;28;20496;-76
2022/03/20 09:44:33;;;;;;;25.30;18.23;;;;;;;8.69;40.24;102477.47;5238023;28;20037;-75
2022/03/20 09:47:09;;;;;;;22.45;17.77;;;;;;;9.61;39.83;102488.00;5221231;28;20501;-77
2022/03/20 09:49:41;;;;;;;23.85;19.48;;;;;;;9.96;37.16;102469.50;5238585;28;20060;-76
2022/03/20 09:52:14;;;;;;;24.27;17.90;;;;;;;9.85;37.41;102480.63;5238016;28;20495;-77
2022/03/20 09:54:46;;;;;;;28.02;18.02;;;;;;;9.53;38.58;102477.47;5238308;28;20029;-76
2022/03/20 09:57:17;;;;;;;23.58;16.95;;;;;;;9.44;39.35;102488.56;5238694;28;20022;-77
2022/03/20 09:59:49;;;;;;;26.73;18.77;;;;;;;9.40;38.99;102493.66;5239510;28;20056;-75
2022/03/20 10:02:25;;;;;;;27.20;19.70;;;;;;;9.04;40.21;102494.69;5240313;28;20033;-75
2022/03/20 10:05:00;;;;;;;27.17;19.08;;;;;;;8.67;40.28;102499.97;5238421;28;20107;-75
2022/03/20 10:07:35;;;;;;;29.58;20.23;;;;;;;8.37;40.60;102487.09;5220326;28;20116;-76
2022/03/20 10:10:17;;;;;;;26.65;19.08;;;;;;;8.11;40.86;102479.53;5220127;28;20028;-75
2022/03/20 10:12:56;;;;;;;28.92;19.98;;;;;;;8.10;40.71;102485.59;5220047;28;20052;-77
2022/03/20 10:15:39;;;;;;;26.05;18.55;;;;;;;8.01;41.45;102499.22;5237496;28;20036;-79
2022/03/20 10:18:23;;;;;;;26.45;20.08;;;;;;;7.90;41.86;102497.19;5236989;28;20077;-79
2022/03/20 10:20:59;;;;;;;28.38;20.48;;;;;;;7.67;42.99;102494.88;5237470;28;20039;-80
2022/03/20 10:23:31;;;;;;;33.42;22.73;;;;;;;7.55;43.44;102490.25;5238423;28;20504;-76
2022/03/20 10:26:06;;;;;;;30.52;21.42;;;;;;;7.42;43.14;102491.63;5237773;28;20021;-80
2022/03/20 10:28:42;;;;;;;27.25;22.08;;;;;;;7.39;43.62;102496.72;5237027;28;20033;-78
2022/03/20 10:31:22;;;;;;;27.38;21.02;;;;;;;7.44;43.73;102489.94;5232233;28;20091;-75
2022/03/20 10:34:04;;;;;;;29.27;22.73;;;;;;;7.70;45.74;102488.91;5236555;28;20057;-81
2022/03/20 10:36:36;;;;;;;30.17;22.67;;;;;;;7.79;47.55;102484.81;5237187;28;20032;-78
2022/03/20 10:39:11;;;;;;;30.53;23.90;;;;;;;7.92;48.76;102490.31;5236490;28;20033;-77
2022/03/20 10:41:45;;;;;;;30.70;23.85;;;;;;;8.04;48.94;102493.25;5232632;28;20054;-81
2022/03/20 10:44:19;;;;;;;30.85;23.10;;;;;;;8.33;48.76;102493.06;5216815;28;20445;-82
2022/03/20 10:46:59;;;;;;;28.75;23.80;;;;;;;8.46;48.53;102486.47;5216096;28;20068;-77
2022/03/20 10:49:32;;;;;;;29.75;24.00;;;;;;;8.69;48.58;102487.84;5217228;28;20034;-81
2022/03/20 10:52:09;;;;;;;42.55;30.33;;;;;;;8.94;48.57;102496.22;5223139;28;20030;-76
2022/03/20 10:54:46;;;;;;;30.20;24.52;;;;;;;8.86;48.15;102502.97;5217561;28;20459;-77
2022/03/20 10:57:17;;;;;;;36.58;25.13;;;;;;;8.68;49.45;102514.72;5215972;28;20030;-76
2022/03/20 11:00:05;;;;;;;28.30;23.97;;;;;;;8.81;50.61;102500.28;5217089;28;20771;-75
2022/03/20 11:02:39;;;;;;;31.42;24.15;;;;;;;8.63;50.96;102510.25;5215458;28;20037;-75
2022/03/20 11:05:11;;;;;;;32.38;24.65;;;;;;;8.35;51.94;102505.25;5215874;28;20025;-74
2022/03/20 11:07:43;;;;;;;29.83;23.70;;;;;;;8.31;52.49;102507.75;5215829;28;20454;-74
2022/03/20 11:10:14;;;;;;;32.10;23.67;;;;;;;8.14;53.36;102515.13;5215226;28;20045;-75
2022/03/20 11:12:47;;;;;;;31.50;24.37;;;;;;;7.98;53.86;102512.13;5216011;28;20053;-74
2022/03/20 11:15:18;;;;;;;39.00;27.08;;;;;;;7.98;54.83;102512.13;5211483;28;20254;-77
2022/03/20 11:17:50;;;;;;;32.53;25.60;;;;;;;8.15;55.26;102512.56;5214881;28;20033;-76
2022/03/20 11:20:25;;;;;;;34.03;25.38;;;;;;;8.06;54.63;102517.53;5215561;28;20022;-73
2022/03/20 11:22:59;;;;;;;32.22;25.05;;;;;;;7.93;54.99;102518.91;5215127;28;20387;-76
2022/03/20 11:25:35;;;;;;;32.13;25.38;;;;;;;7.94;55.67;102514.63;5215385;28;20540;-74
2022/03/20 11:28:09;;;;;;;33.53;25.85;;;;;;;8.01;54.97;102511.34;5215425;28;20033;-75
2022/03/20 11:30:44;;;;;;;30.90;26.13;;;;;;;8.15;55.37;102506.50;5216257;28;20485;-74
2022/03/20 11:33:20;;;;;;;33.05;26.70;;;;;;;7.99;55.22;102510.44;5214667;28;20464;-75
2022/03/20 11:35:51;;;;;;;33.92;24.92;;;;;;;8.00;54.93;102504.38;5214683;28;20033;-77
2022/03/20 11:38:24;;;;;;;30.20;23.93;;;;;;;8.12;54.91;102509.88;5214443;28;20029;-75
2022/03/20 11:41:05;;;;;;;;;;;;;;;8.42;53.73;102498.50;5214822;28;20065;-75
2022/03/20 11:43:39;;;;;;;29.98;24.55;;;;;;;8.11;54.94;102502.91;5234252;28;20004;-74
2022/03/20 11:46:22;;;;;;;33.92;25.80;;;;;;;8.04;55.18;102514.88;5234910;28;20112;-75
2022/03/20 11:49:17;;;;;;;30.52;25.20;;;;;;;8.10;54.89;102513.28;5234206;28;20036;-75
2022/03/20 11:52:03;;;;;;;28.90;25.15;;;;;;;7.87;54.99;102510.09;5234974;28;20049;-75
2022/03/20 11:54:41;;;;;;;30.20;25.02;;;;;;;7.75;55.73;102505.47;5234623;28;20095;-73
2022/03/20 11:57:24;;;;;;;29.17;24.88;;;;;;;7.90;54.86;102507.59;5235177;28;20057;-76
2022/03/20 12:00:18;;;;;;;27.92;24.23;;;;;;;7.78;55.35;102505.56;5235006;28;20026;-76
2022/03/20 12:03:21;;;;;;;32.47;26.52;;;;;;;7.81;55.13;102506.50;5235630;28;20040;-73
2022/03/20 12:06:18;;;;;;;31.70;25.30;;;;;;;7.81;55.23;102509.09;5233505;28;20061;-76
2022/03/20 12:09:10;;;;;;;29.77;24.63;;;;;;;7.75;53.10;102515.84;5234711;28;20037;-74
2022/03/20 12:11:50;;;;;;;33.00;25.60;;;;;;;7.65;53.65;102500.03;5234706;28;20040;-75
2022/03/20 12:14:25;;;;;;;27.77;22.88;;;;;;;7.56;53.26;102489.38;5234412;28;20036;-76
2022/03/20 12:16:58;;;;;;;31.42;25.02;;;;;;;7.64;53.44;102492.19;5234701;28;20036;-75
2022/03/20 12:19:44;;;;;;;32.17;26.27;;;;;;;7.85;56.69;102495.34;5228970;28;20477;-75
2022/03/20 12:22:19;;;;;;;32.00;23.95;;;;;;;7.96;51.79;102487.84;5213688;28;20030;-75
2022/03/20 12:24:57;;;;;;;31.23;24.55;;;;;;;8.02;53.20;102492.31;5223596;28;20056;-77
2022/03/20 12:27:29;;;;;;;28.00;23.55;;;;;;;8.28;51.25;102486.91;5233573;28;20113;-75
2022/03/20 12:30:26;;;;;;;31.02;24.92;;;;;;;8.61;51.22;102479.00;5234660;28;20029;-74
2022/03/20 12:32:59;;;;;;;31.00;24.17;;;;;;;9.49;47.71;102468.69;5233518;28;20030;-74
2022/03/20 12:35:45;;;;;;;28.38;23.52;;;;;;;9.63;47.64;102478.50;5234215;28;20052;-75
2022/03/20 12:38:40;;;;;;;29.90;23.52;;;;;;;9.61;46.96;102472.38;5234267;28;20477;-74
2022/03/20 12:41:14;;;;;;;29.65;24.33;;;;;;;9.26;45.62;102480.41;5234667;28;20531;-77
2022/03/20 12:44:01;;;;;;;30.48;25.13;;;;;;;9.24;46.47;102469.06;5234966;28;20022;-75
2022/03/20 12:46:34;;;;;;;29.13;23.38;;;;;;;9.20;45.73;102486.34;5235059;28;20032;-74
2022/03/20 12:49:15;;;;;;;30.75;23.40;;;;;;;8.96;46.24;102478.91;5234937;28;20025;-75
2022/03/20 12:51:48;;;;;;;33.67;23.23;;;;;;;9.03;46.11;102478.22;5232304;28;20036;-75
2022/03/20 12:54:20;;;;;;;;;;;;;;;9.23;44.85;102483.81;5235132;28;20029;-74
2022/03/20 12:56:53;;;;;;;31.52;23.63;;;;;;;8.99;45.99;102481.59;5235273;28;20655;-74
2022/03/20 12:59:25;;;;;;;32.67;22.88;;;;;;;9.27;45.92;102483.03;5237130;28;20468;-75
2022/03/20 13:02:03;;;;;;;29.92;24.35;;;;;;;9.19;44.68;102488.91;5238494;28;20036;-73
2022/03/20 13:04:35;;;;;;;31.48;24.27;;;;;;;9.35;44.54;102483.16;5237872;28;20065;-74